• Join FlightAware (Why Join?)
  • Login
  • US Flag 
04:16AM EST


 

Airport Tracker/Info


-or-


 

Live Flight TrackerFlight Track Log ✈ AWE471 ✈ 25-Mar-2014 ✈ KPHX - KMSP

Flight Track Log - Related Links

Times and Time Zones

All times are in EDT time to prevent confusion due to time zone crossing. See the AWE471 flight status page for this flight to view local times or setup timezone preferences in your user account.

Time Position Orientation Groundspeed Altitude Reporting Facility
EDT Latitude Longitude Course Direction KTS MPH feet Rate Location/Type
03:23PM 33.4333 -111.9833 20° North 172 198 2,100  Level Phoenix TRACON
03:24PM 33.4333 -111.9000 90° East 222 255 3,600 2,033 Climbing Phoenix TRACON
03:25PM 33.4500 -111.8333 73° East 241 277 6,200 2,421 Climbing Phoenix TRACON
03:26PM 33.7688 -111.8549 15° North  Level FlightAware Approximate
03:26PM 33.5000 -111.7667 48° Northeast 286 329 8,200  Level Phoenix TRACON
03:27PM 33.8813 -111.8072 20° North  Level FlightAware Approximate
03:28PM 33.9935 -111.7581 20° North  Level FlightAware Approximate
03:28PM 33.5656 -111.6514 56° Northeast 305 351 11,000  Level Albuquerque Center
03:29PM 34.1057 -111.7092 20° North  Level FlightAware Approximate
03:29PM 33.6553 -111.6006 25° Northeast 368 423 12,900  Level Albuquerque Center
03:30PM 33.7664 -111.6222 351° North 383 441 15,200 2,195 Climbing Albuquerque Center
03:31PM 33.8711 -111.6608 343° North 390 449 17,400 2,081 Climbing Albuquerque Center
03:32PM 33.9789 -111.7000 343° North 401 461 19,500 2,293 Climbing Albuquerque Center
03:33PM 34.0953 -111.7089 356° North 412 474 22,100 2,049 Climbing Albuquerque Center
03:34PM 34.1900 -111.6403 31° Northeast 400 460 23,700 1,500 Climbing Albuquerque Center
03:35PM 34.2903 -111.5731 29° Northeast 406 467 25,200 1,561 Climbing Albuquerque Center
03:36PM 34.3894 -111.5011 31° Northeast 414 476 26,900 1,659 Climbing Albuquerque Center
03:37PM 34.4867 -111.4319 30° Northeast 411 473 28,600 1,645 Climbing Albuquerque Center
03:38PM 34.5828 -111.3631 31° Northeast 408 470 30,300 1,366 Climbing Albuquerque Center
03:39PM 34.6769 -111.2944 31° Northeast 402 463 31,400 878 Climbing Albuquerque Center
03:40PM 34.7936 -111.2103 31° Northeast 403 464 32,100 581 Climbing Albuquerque Center
03:41PM 34.8950 -111.1369 31° Northeast 419 482 32,600 581 Climbing Albuquerque Center
03:42PM 35.0100 -111.0528 31° Northeast 431 496 33,300 683 Climbing Albuquerque Center
03:43PM 35.1136 -110.9794 30° Northeast 440 506 34,000 585 Climbing Albuquerque Center
03:44PM 35.2167 -110.9044 31° Northeast 446 513 34,500 581 Climbing Albuquerque Center
03:45PM 35.3386 -110.8142 31° Northeast 451 519 35,200 581 Climbing Albuquerque Center
03:46PM 35.4417 -110.7369 31° Northeast 454 522 35,700 634 Climbing Albuquerque Center
03:47PM 35.5650 -110.6453 31° Northeast 457 526 36,500 634 Climbing Albuquerque Center
03:48PM 35.6711 -110.5669 31° Northeast 461 531 37,000 242 Climbing Albuquerque Center
03:49PM 35.7950 -110.4744 31° Northeast 462 532 37,000  Level Albuquerque Center
03:50PM 35.9050 -110.3947 30° Northeast 472 543 37,000  Level Albuquerque Center
03:51PM 36.0122 -110.3136 31° Northeast 472 543 37,000  Level Albuquerque Center
03:52PM 36.1367 -110.2192 31° Northeast 472 543 37,000  Level Albuquerque Center
03:54PM 36.2628 -110.1250 31° Northeast 471 542 37,000  Level Denver Center
03:55PM 36.4064 -110.0172 31° Northeast 471 542 37,000  Level Denver Center
03:56PM 36.5136 -109.9364 31° Northeast 471 542 37,000  Level Denver Center
03:57PM 36.6211 -109.8539 32° Northeast 471 542 37,000  Level Denver Center
03:58PM 36.7472 -109.7569 32° Northeast 473 544 37,000  Level Denver Center
03:59PM 36.8550 -109.6742 32° Northeast 473 544 37,000  Level Denver Center
04:00PM 36.9819 -109.5772 31° Northeast 475 547 37,000  Level Denver Center
04:01PM 37.0900 -109.4947 31° Northeast 475 547 37,000  Level Denver Center
04:02PM 37.2139 -109.3975 32° Northeast 472 543 37,000  Level Denver Center
04:03PM 37.3203 -109.3136 32° Northeast 471 542 37,000  Level Denver Center
04:04PM 37.4431 -109.2186 32° Northeast 465 535 37,000  Level Denver Center
04:05PM 37.5478 -109.1381 31° Northeast 463 533 37,000  Level Denver Center
04:06PM 37.6525 -109.0556 32° Northeast 463 533 37,000  Level Denver Center
04:07PM 37.7717 -108.9558 33° Northeast 460 529 37,000  Level Denver Center
04:08PM 37.8592 -108.8503 44° Northeast 455 524 37,000  Level Denver Center
04:09PM 37.9442 -108.7053 53° Northeast 453 521 37,000  Level Denver Center
04:10PM 38.0183 -108.5808 53° Northeast 457 526 37,000  Level Denver Center
04:11PM 38.0967 -108.4497 53° Northeast 459 528 37,000  Level Denver Center
04:12PM 38.1817 -108.3061 53° Northeast 457 526 37,000  Level Denver Center
04:13PM 38.2547 -108.1828 53° Northeast 457 526 37,000  Level Denver Center
04:14PM 38.3397 -108.0397 53° Northeast 456 525 37,000  Level Denver Center
04:15PM 38.4136 -107.9169 52° Northeast 456 525 37,000  Level Denver Center
04:16PM 38.4867 -107.7917 53° Northeast 457 526 37,000  Level Denver Center
04:17PM 38.5708 -107.6461 53° Northeast 458 527 37,000  Level Denver Center
04:18PM 38.6453 -107.5186 53° Northeast 462 532 37,000  Level Denver Center
04:19PM 38.7303 -107.3708 54° Northeast 463 533 37,000  Level Denver Center
04:20PM 38.8033 -107.2442 53° Northeast 463 533 37,000  Level Denver Center
04:21PM 38.8894 -107.0944 54° Northeast 465 535 37,000  Level Denver Center
04:22PM 38.9628 -106.9667 54° Northeast 465 535 37,000  Level Denver Center
04:24PM 39.0483 -106.8169 54° Northeast 465 535 37,000  Level Denver Center
04:25PM 39.1200 -106.6892 54° Northeast 465 535 37,000  Level Denver Center
04:26PM 39.2042 -106.5403 54° Northeast 461 531 37,000  Level Denver Center
04:27PM 39.2753 -106.4133 54° Northeast 460 529 37,000  Level Denver Center
04:28PM 39.3472 -106.2847 54° Northeast 460 529 37,000  Level Denver Center
04:29PM 39.4206 -106.1522 54° Northeast 460 529 37,000  Level Denver Center
04:30PM 39.5122 -105.9892 54° Northeast 463 533 37,000  Level Denver Center
04:31PM 39.5869 -105.8539 54° Northeast 463 533 37,000  Level Denver Center
04:32PM 39.6594 -105.7189 55° Northeast 461 531 37,000  Level Denver Center
04:33PM 39.7342 -105.5828 54° Northeast 461 531 37,000  Level Denver Center
04:34PM 39.8086 -105.4461 55° Northeast 461 531 37,000  Level Denver Center
04:35PM 39.8844 -105.3069 55° Northeast 464 534 37,000  Level Denver Center
04:36PM 39.9592 -105.1678 55° Northeast 465 535 37,000  Level Denver Center
04:37PM 40.0342 -105.0269 55° Northeast 467 537 37,000  Level Denver Center
04:38PM 40.1236 -104.8614 55° Northeast 467 537 37,000  Level Denver Center
04:39PM 40.1958 -104.7242 55° Northeast 461 531 37,000  Level Denver Center
04:40PM 40.2847 -104.5583 55° Northeast 461 531 37,000  Level Denver Center
04:41PM 40.3564 -104.4175 56° Northeast 462 532 37,000  Level Denver Center
04:42PM 40.4164 -104.2669 62° Northeast 463 533 37,000  Level Denver Center
04:44PM 40.4900 -104.0858 62° Northeast 466 536 37,000  Level Denver Center
04:45PM 40.5503 -103.9356 62° Northeast 466 536 37,000  Level Denver Center
04:46PM 40.6222 -103.7553 62° Northeast 466 536 37,000  Level Denver Center
04:47PM 40.6817 -103.6031 63° Northeast 467 537 37,000  Level Denver Center
04:48PM 40.7422 -103.4519 62° Northeast 467 537 37,000  Level Denver Center
04:49PM 40.8022 -103.2978 63° Northeast 469 540 37,000  Level Denver Center
04:50PM 40.8619 -103.1447 63° Northeast 470 541 37,000  Level Denver Center
04:51PM 40.9300 -102.9714 62° Northeast 473 544 37,000  Level Denver Center
04:52PM 40.9856 -102.8219 64° Northeast 473 544 37,000  Level Denver Center
04:53PM 41.0547 -102.6497 62° Northeast 473 544 37,000  Level Denver Center
04:54PM 41.1100 -102.5006 64° Northeast 473 544 37,000  Level Denver Center
04:55PM 41.1767 -102.3258 63° Northeast 473 544 37,000  Level Denver Center
04:56PM 41.2336 -102.1775 63° Northeast 473 544 37,000  Level Denver Center
04:57PM 41.2981 -102.0011 64° Northeast 473 544 37,000  Level Denver Center
04:58PM 41.3542 -101.8525 63° Northeast 472 543 37,000  Level Denver Center
04:59PM 41.4103 -101.7047 63° Northeast 469 540 37,000  Level Denver Center
05:01PM 41.5278 -101.3836 64° Northeast 466 536 37,000  Level Denver Center
05:02PM 41.5914 -101.2081 64° Northeast 467 537 37,000  Level Denver Center
05:03PM 41.6558 -101.0325 64° Northeast 467 537 37,000  Level Denver Center
05:04PM 41.7194 -100.8564 64° Northeast 467 537 37,000  Level Denver Center
05:05PM 41.7731 -100.7061 64° Northeast 467 537 37,000  Level Denver Center
05:06PM 41.8353 -100.5319 64° Northeast 466 536 37,000  Level Denver Center
05:07PM 41.8878 -100.3819 65° Northeast 464 534 37,000  Level Denver Center
05:08PM 41.9347 -100.2494 64° Northeast 463 533 37,000  Level Minneapolis Center
05:09PM 41.9917 -100.0922 64° Northeast 464 534 37,000  Level Minneapolis Center
05:10PM 42.0450 -99.9353 65° Northeast 463 533 37,000  Level Minneapolis Center
05:11PM 42.0986 -99.7783 65° Northeast 463 533 37,000  Level Minneapolis Center
05:12PM 42.1539 -99.6225 64° Northeast 463 533 37,000  Level Minneapolis Center
05:13PM 42.2172 -99.4353 65° Northeast 458 527 37,000  Level Minneapolis Center
05:14PM 42.2697 -99.2806 65° Northeast 458 527 37,000  Level Minneapolis Center
05:15PM 42.3231 -99.1253 65° Northeast 457 526 37,000  Level Minneapolis Center
05:17PM 42.3753 -98.9700 65° Northeast 456 525 37,000  Level Minneapolis Center
05:18PM 42.4286 -98.8128 65° Northeast 456 525 37,000  Level Minneapolis Center
05:19PM 42.4869 -98.6625 62° Northeast 451 519 37,000  Level Minneapolis Center
05:20PM 42.5603 -98.5331 52° Northeast 437 503 37,000  Level Minneapolis Center
05:21PM 42.6350 -98.4067 51° Northeast 432 497 37,000  Level Minneapolis Center
05:22PM 42.7106 -98.2808 51° Northeast 431 496 37,000  Level Minneapolis Center
05:23PM 42.7950 -98.1342 52° Northeast 429 494 37,000  Level Minneapolis Center
05:24PM 42.8675 -98.0081 52° Northeast 427 491 37,000  Level Minneapolis Center
05:25PM 42.9394 -97.8828 52° Northeast 426 490 37,000  Level Minneapolis Center
05:26PM 43.0125 -97.7572 51° Northeast 426 490 37,000  Level Minneapolis Center
05:27PM 43.0861 -97.6322 51° Northeast 425 489 37,000  Level Minneapolis Center
05:28PM 43.1722 -97.4828 52° Northeast 423 487 37,000  Level Minneapolis Center
05:29PM 43.2439 -97.3556 52° Northeast 422 486 37,000  Level Minneapolis Center
05:30PM 43.3153 -97.2317 52° Northeast 420 483 37,000  Level Minneapolis Center
05:31PM 43.3864 -97.1039 53° Northeast 421 484 37,000  Level Minneapolis Center
05:32PM 43.4581 -96.9792 52° Northeast 420 483 37,000  Level Minneapolis Center
05:33PM 43.5283 -96.8533 52° Northeast 420 483 37,000  Level Minneapolis Center
05:34PM 43.6128 -96.7014 52° Northeast 419 482 37,000  Level Minneapolis Center
05:35PM 43.6828 -96.5758 52° Northeast 419 482 37,000  Level Minneapolis Center
05:36PM 43.7519 -96.4508 53° Northeast 417 480 37,000  Level Minneapolis Center
05:37PM 43.8208 -96.3267 52° Northeast 413 475 37,000  Level Minneapolis Center
05:38PM 43.8894 -96.2014 53° Northeast 413 475 37,000  Level Minneapolis Center
05:39PM 43.9583 -96.0783 52° Northeast 413 475 37,000  Level Minneapolis Center
05:40PM 44.0400 -95.9278 53° Northeast 413 475 37,000 -290 Level Minneapolis Center
05:41PM 44.1058 -95.7969 55° Northeast 415 478 36,400 -1,210 Descending Minneapolis Center
05:42PM 44.1631 -95.6469 62° Northeast 437 503 34,500 -2,488 Descending Minneapolis Center
05:43PM 44.2217 -95.4939 62° Northeast 445 512 31,300 -2,780 Descending Minneapolis Center
05:44PM 44.2817 -95.3372 62° Northeast 456 525 28,800 -2,565 Descending Minneapolis Center
05:45PM 44.3511 -95.1544 62° Northeast 452 520 26,000 -2,488 Descending Minneapolis Center
05:46PM 44.4075 -95.0067 62° Northeast 438 504 23,700 -2,195 Descending Minneapolis Center
05:47PM 44.4628 -94.8631 62° Northeast 428 493 21,500 -2,129 Descending Minneapolis Center
05:48PM 44.5147 -94.7228 63° Northeast 414 476 19,300 -2,081 Descending Minneapolis Center
05:49PM 44.5697 -94.5764 62° Northeast 397 457 17,200 -2,081 Descending Minneapolis Center
05:51PM 44.6172 -94.4461 63° Northeast 381 438 15,000 -2,098 Descending Minneapolis Center
05:52PM 44.6583 -94.3150 66° East 372 428 12,900 -1,854 Descending Minneapolis Center
05:53PM 44.6875 -94.1814 73° East 359 413 11,200 -919 Descending Minneapolis Center
05:54PM 44.7167 -94.0508 73° East 353 406 11,000 -97 Descending Minneapolis Center
05:55PM 44.7458 -93.9200 73° East 353 406 11,000  Level Minneapolis Center
05:56PM 44.7736 -93.7947 73° East 334 384 11,000 -49 Level Minneapolis Center
05:57PM 44.8031 -93.6650 72° East 293 337 10,900 -829 Descending Minneapolis Center
05:58PM 44.8269 -93.5556 73° East 292 336 9,300 -1,355 Descending Minneapolis Center
05:59PM 44.8503 -93.4494 73° East 286 329 8,100 -629 Descending Minneapolis Center
06:00PM 44.8567 -93.3419 85° East 291 335 8,000 -677 Descending Minneapolis Center
06:01PM 44.7864 -93.3025 158° South 286 329 6,700 -1,500 Descending Minneapolis Center
06:02PM 44.7067 -93.2764 167° South 258 297 4,900 -1,355 Descending Minneapolis Center
06:03PM 44.6986 -93.2069 99° East 203 234 3,900 -919 Descending Minneapolis Center
06:04PM 44.7450 -93.2050 North 176 203 3,000 -726 Descending Minneapolis Center
06:05PM 44.7958 -93.2183 349° North 165 190 2,400 -634 Descending Minneapolis Center
06:06PM 44.8303 -93.2275 349° North 133 153 1,700 -689 Descending Minneapolis Center